Time;durP1;ratioP1;P1;durP2;ratioP2;P2;SDS_P1;SDS_P2;PMS_P1;PMS_P2;Temp;Humidity;BMP_temperature;BMP_pressure;BME280_temperature;BME280_humidity;BME280_pressure;Samples;Min_cycle;Max_cycle;Signal;HPM_P1;HPM_P2
2022/06/13 00:01:29;;;;;;;4.28;2.72;;;15.80;99.90;;;;;;5058698;28;20571;-78
2022/06/13 00:03:57;;;;;;;7.32;2.70;;;15.90;99.90;;;;;;5058922;28;20197;-79
2022/06/13 00:06:25;;;;;;;5.68;3.00;;;15.70;99.90;;;;;;5075947;28;20204;-78
2022/06/13 00:08:53;;;;;;;5.85;2.63;;;15.60;99.90;;;;;;5060099;28;20197;-78
2022/06/13 00:11:23;;;;;;;6.22;3.10;;;15.70;99.90;;;;;;5067922;28;20206;-78
2022/06/13 00:13:54;;;;;;;6.35;3.17;;;15.50;99.90;;;;;;5065942;28;20201;-79
2022/06/13 00:16:21;;;;;;;6.72;2.83;;;15.20;99.90;;;;;;5059511;28;20205;-78
2022/06/13 00:18:49;;;;;;;4.90;3.05;;;15.10;99.90;;;;;;5065242;28;20190;-78
2022/06/13 00:21:19;;;;;;;5.72;3.00;;;15.40;99.90;;;;;;5059299;28;20206;-78
2022/06/13 00:23:46;;;;;;;4.20;2.55;;;15.30;99.90;;;;;;5061327;28;20200;-78
2022/06/13 00:26:15;;;;;;;3.70;2.50;;;15.50;99.90;;;;;;5064102;28;20186;-78
2022/06/13 00:28:42;;;;;;;6.68;2.80;;;15.40;99.90;;;;;;5064660;28;20545;-78
2022/06/13 00:31:11;;;;;;;5.75;2.90;;;15.70;99.90;;;;;;5059722;28;20194;-79
2022/06/13 00:33:39;;;;;;;4.57;2.70;;;15.60;99.90;;;;;;5062493;28;20205;-78
2022/06/13 00:36:07;;;;;;;5.03;2.53;;;15.40;99.90;;;;;;5063627;28;20213;-78
2022/06/13 00:38:44;;;;;;;4.72;2.78;;;15.40;99.90;;;;;;5064211;28;20225;-78
2022/06/13 00:41:16;;;;;;;5.72;2.75;;;15.40;99.90;;;;;;5068597;28;20197;-78
2022/06/13 00:43:46;;;;;;;6.28;2.80;;;15.60;99.90;;;;;;5081732;28;20194;-78
2022/06/13 00:46:21;;;;;;;4.68;2.60;;;15.60;99.90;;;;;;5061802;28;20198;-79
2022/06/13 00:48:53;;;;;;;5.70;3.13;;;15.70;99.90;;;;;;5079570;28;20201;-78
2022/06/13 00:51:21;;;;;;;5.90;2.60;;;15.80;99.90;;;;;;5079761;28;20198;-78
2022/06/13 00:53:50;;;;;;;5.47;2.85;;;15.70;99.90;;;;;;5063099;28;20556;-78
2022/06/13 00:56:21;;;;;;;4.53;2.45;;;15.70;99.90;;;;;;5065091;28;20222;-78
2022/06/13 00:58:53;;;;;;;5.38;3.25;;;15.60;99.90;;;;;;5061803;28;20244;-78
2022/06/13 01:01:23;;;;;;;7.05;3.22;;;15.50;99.90;;;;;;5064606;28;20205;-78
2022/06/13 01:03:51;;;;;;;4.45;2.80;;;15.50;99.90;;;;;;5062468;28;20194;-78
2022/06/13 01:06:19;;;;;;;5.63;3.28;;;15.70;99.90;;;;;;5062323;28;20222;-78
2022/06/13 01:08:47;;;;;;;6.60;2.92;;;15.60;99.90;;;;;;5066005;28;20189;-78
2022/06/13 01:11:24;;;;;;;5.32;2.85;;;15.50;99.90;;;;;;5061345;28;20194;-78
2022/06/13 01:14:14;;;;;;;5.60;2.90;;;15.40;99.90;;;;;;5085463;28;20196;-78
2022/06/13 01:16:54;;;;;;;7.43;3.38;;;15.20;99.90;;;;;;5071908;28;20222;-78
2022/06/13 01:19:58;;;;;;;6.50;3.42;;;15.40;99.90;;;;;;5066907;28;20199;-78
2022/06/13 01:22:50;;;;;;;5.78;2.85;;;15.60;99.90;;;;;;5079014;28;20639;-78
2022/06/13 01:25:53;;;;;;;7.55;2.90;;;15.60;99.90;;;;;;5063067;28;20205;-78
2022/06/13 01:28:57;;;;;;;6.90;3.65;;;15.50;99.90;;;;;;5078819;28;20575;-78
2022/06/13 01:31:36;;;;;;;6.38;3.55;;;15.40;99.90;;;;;;5020881;28;20657;-78
2022/06/13 01:34:11;;;;;;;3.97;3.20;;;15.30;99.90;;;;;;5060008;28;20214;-78
2022/06/13 01:36:50;;;;;;;5.93;3.20;;;15.40;99.90;;;;;;5060581;28;20245;-78
2022/06/13 01:39:30;;;;;;;7.05;3.38;;;15.40;99.90;;;;;;5066848;28;20212;-78
2022/06/13 01:42:09;;;;;;;5.03;3.35;;;15.20;99.90;;;;;;5082587;28;20196;-78
2022/06/13 01:44:46;;;;;;;7.60;3.58;;;14.90;99.90;;;;;;5066023;28;20210;-78
2022/06/13 01:47:23;;;;;;;4.18;2.90;;;15.10;99.90;;;;;;5062175;28;20213;-78
2022/06/13 01:49:59;;;;;;;4.28;3.15;;;14.70;99.90;;;;;;5064167;28;20193;-78
2022/06/13 01:52:30;;;;;;;8.20;3.55;;;15.00;99.90;;;;;;5061402;28;20201;-78
2022/06/13 01:55:04;;;;;;;4.88;3.10;;;15.20;99.90;;;;;;5064360;28;20194;-78
2022/06/13 01:57:37;;;;;;;4.78;3.58;;;15.30;99.90;;;;;;5059152;28;20217;-78
2022/06/13 02:00:09;;;;;;;5.25;3.58;;;15.40;99.90;;;;;;5063293;28;20194;-78
2022/06/13 02:02:43;;;;;;;6.07;3.65;;;15.40;99.90;;;;;;5078963;28;20892;-78
2022/06/13 02:05:16;;;;;;;8.23;3.83;;;15.40;99.90;;;;;;5062998;28;20190;-78
2022/06/13 02:07:48;;;;;;;6.63;3.88;;;15.40;99.90;;;;;;5067872;28;20221;-79
2022/06/13 02:10:20;;;;;;;6.63;3.85;;;15.60;99.90;;;;;;5063355;28;20205;-78
2022/06/13 02:12:52;;;;;;;6.00;3.92;;;15.20;99.90;;;;;;5067671;28;20202;-78
2022/06/13 02:15:29;;;;;;;8.65;3.85;;;15.00;99.90;;;;;;5062777;28;20222;-77
2022/06/13 02:18:05;;;;;;;6.28;4.32;;;15.30;99.90;;;;;;5066686;28;20229;-78
2022/06/13 02:20:37;;;;;;;6.72;4.10;;;15.30;99.90;;;;;;5065563;28;20193;-78
2022/06/13 02:23:09;;;;;;;7.43;3.85;;;15.30;99.90;;;;;;5069466;28;20668;-78
2022/06/13 02:25:43;;;;;;;6.93;3.50;;;15.30;99.90;;;;;;5065220;28;20198;-78
2022/06/13 02:28:17;;;;;;;6.68;3.95;;;15.40;99.90;;;;;;5067615;28;20602;-78
2022/06/13 02:30:52;;;;;;;9.68;3.55;;;15.30;99.90;;;;;;5061613;28;20570;-78
2022/06/13 02:33:25;;;;;;;4.22;3.35;;;15.30;99.90;;;;;;5063306;28;20221;-79
2022/06/13 02:35:57;;;;;;;6.60;3.70;;;15.30;99.90;;;;;;5061188;28;20220;-78
2022/06/13 02:38:32;;;;;;;7.15;3.60;;;15.40;99.90;;;;;;5061498;28;20575;-78
2022/06/13 02:41:05;;;;;;;8.13;3.50;;;15.50;99.90;;;;;;5059236;28;20204;-78
2022/06/13 02:43:42;;;;;;;9.18;4.05;;;15.30;99.90;;;;;;5058759;28;20194;-77
2022/06/13 02:46:16;;;;;;;8.77;4.50;;;15.10;99.90;;;;;;5056035;28;20188;-78
2022/06/13 02:48:50;;;;;;;7.90;3.97;;;15.20;99.90;;;;;;5060736;28;20219;-78
2022/06/13 02:51:22;;;;;;;7.03;3.67;;;15.30;99.90;;;;;;5064083;28;20206;-78
2022/06/13 02:54:10;;;;;;;8.65;4.10;;;15.50;99.90;;;;;;5063027;28;20197;-78
2022/06/13 02:59:44;;;;;;;9.68;4.80;;;15.40;99.90;;;;;;5057760;28;20202;-78
2022/06/13 03:02:19;;;;;;;7.57;4.55;;;15.50;99.90;;;;;;5056116;28;20186;-78
2022/06/13 03:04:56;;;;;;;7.15;4.60;;;15.40;99.90;;;;;;5073246;28;20212;-78
2022/06/13 03:07:32;;;;;;;10.05;5.03;;;15.20;99.90;;;;;;5066061;28;20217;-77
2022/06/13 03:10:06;;;;;;;11.00;4.75;;;15.10;99.90;;;;;;5078795;28;20197;-78
2022/06/13 03:12:40;;;;;;;8.20;4.88;;;15.30;99.90;;;;;;5062574;28;20188;-78
2022/06/13 03:15:16;;;;;;;6.63;4.10;;;15.20;99.90;;;;;;5061590;28;20197;-78
2022/06/13 03:17:48;;;;;;;6.25;4.57;;;15.20;99.90;;;;;;5071526;28;20217;-78
2022/06/13 03:20:20;;;;;;;7.32;4.50;;;15.30;99.90;;;;;;5077699;28;20205;-78
2022/06/13 03:23:06;;;;;;;8.18;4.32;;;15.50;99.90;;;;;;5061446;28;20197;-78
2022/06/13 03:25:40;;;;;;;11.40;4.20;;;15.70;99.90;;;;;;5058255;28;20206;-78
2022/06/13 03:28:14;;;;;;;7.75;4.22;;;15.80;99.90;;;;;;5060594;28;20220;-78
2022/06/13 03:30:48;;;;;;;8.23;4.72;;;15.90;99.90;;;;;;5062907;28;20190;-78
2022/06/13 03:36:10;;;;;;;9.20;4.97;;;15.50;99.90;;;;;;5060032;28;20210;-78
2022/06/13 03:39:10;;;;;;;10.75;4.70;;;15.40;99.90;;;;;;5060973;28;20209;-78
2022/06/13 03:41:42;;;;;;;7.85;4.10;;;15.50;99.90;;;;;;5057516;28;20195;-78
2022/06/13 03:44:15;;;;;;;8.93;4.25;;;15.60;99.90;;;;;;5062554;28;20202;-78
2022/06/13 03:46:47;;;;;;;7.57;4.70;;;15.80;99.90;;;;;;5066394;28;20213;-78
2022/06/13 03:49:21;;;;;;;6.57;4.25;;;15.90;99.90;;;;;;5065465;28;20193;-78
2022/06/13 03:52:07;;;;;;;6.22;4.53;;;15.60;99.90;;;;;;5078683;28;20190;-78
2022/06/13 03:54:39;;;;;;;8.30;4.85;;;15.60;99.90;;;;;;5060970;28;20186;-78
2022/06/13 03:57:13;;;;;;;8.60;4.35;;;15.60;99.90;;;;;;5078339;28;20241;-78
2022/06/13 03:59:46;;;;;;;8.02;4.68;;;15.70;99.90;;;;;;5073674;28;20201;-77
2022/06/13 04:02:19;;;;;;;6.55;3.85;;;15.70;99.90;;;;;;5068095;28;20201;-77
2022/06/13 04:04:50;;;;;;;6.93;3.75;;;16.10;99.90;;;;;;5062874;28;20207;-77
2022/06/13 04:07:21;;;;;;;9.90;4.57;;;16.80;99.90;;;;;;5076848;28;20219;-77
2022/06/13 04:10:09;;;;;;;7.75;5.35;;;16.80;99.90;;;;;;5059957;28;20191;-78
2022/06/13 04:12:56;;;;;;;8.55;4.32;;;16.50;99.90;;;;;;5064479;28;20202;-77
2022/06/13 04:15:40;;;;;;;7.78;4.85;;;16.90;99.90;;;;;;5075233;28;20710;-77
2022/06/13 04:18:17;;;;;;;6.80;4.03;;;17.10;99.90;;;;;;5085100;28;20240;-77
2022/06/13 04:20:54;;;;;;;6.60;4.30;;;17.00;99.90;;;;;;5075577;28;20208;-77
2022/06/13 04:23:32;;;;;;;7.97;5.15;;;16.90;99.90;;;;;;5062204;28;20214;-77
2022/06/13 04:26:42;;;;;;;5.47;3.92;;;16.90;99.90;;;;;;5065314;28;20193;-77
2022/06/13 04:29:18;;;;;;;9.68;4.55;;;16.60;99.90;;;;;;5079481;28;20209;-77
2022/06/13 04:31:46;;;;;;;8.95;4.88;;;16.60;99.90;;;;;;5083094;28;20200;-77
2022/06/13 04:34:18;;;;;;;7.68;4.45;;;16.20;99.90;;;;;;5065137;28;20204;-77
2022/06/13 04:36:48;;;;;;;7.75;4.57;;;16.20;99.90;;;;;;5062333;28;20221;-77
2022/06/13 04:39:27;;;;;;;8.35;4.60;;;16.50;99.90;;;;;;5066472;28;20185;-77
2022/06/13 04:41:59;;;;;;;6.05;3.55;;;16.50;99.90;;;;;;5078697;28;20201;-77
2022/06/13 04:44:28;;;;;;;9.65;4.32;;;16.70;99.90;;;;;;5064241;28;20189;-77
2022/06/13 04:46:57;;;;;;;9.68;5.43;;;17.10;99.90;;;;;;5079840;28;20233;-77
2022/06/13 04:49:30;;;;;;;10.13;5.05;;;17.00;99.90;;;;;;5065307;28;20564;-77
2022/06/13 04:52:00;;;;;;;7.15;4.45;;;16.70;99.90;;;;;;5062151;28;20198;-77
2022/06/13 04:54:36;;;;;;;9.25;4.85;;;16.50;99.90;;;;;;5066579;28;20194;-79
2022/06/13 04:57:05;;;;;;;8.13;4.35;;;16.30;99.90;;;;;;5060946;28;20232;-77
2022/06/13 04:59:32;;;;;;;11.50;4.57;;;17.20;99.90;;;;;;5061992;28;20209;-79
2022/06/13 05:02:04;;;;;;;8.15;5.35;;;17.70;99.90;;;;;;5080986;28;20202;-78
2022/06/13 05:04:34;;;;;;;7.80;4.95;;;17.60;99.90;;;;;;5069913;28;20201;-78
2022/06/13 05:07:11;;;;;;;8.45;5.28;;;16.90;99.90;;;;;;5069476;28;20217;-78
2022/06/13 05:09:43;;;;;;;9.48;4.97;;;16.30;99.90;;;;;;5071607;28;20201;-78
2022/06/13 05:12:15;;;;;;;11.75;5.30;;;16.10;99.90;;;;;;5052102;28;20205;-78
2022/06/13 05:14:47;;;;;;;8.25;4.88;;;15.70;99.90;;;;;;5052597;28;20202;-78
2022/06/13 05:17:44;;;;;;;8.63;4.85;;;15.70;99.90;;;;;;5063386;28;20225;-78
2022/06/13 05:20:18;;;;;;;8.52;5.18;;;15.90;99.90;;;;;;5032800;28;20206;-78
2022/06/13 05:23:00;;;;;;;10.07;5.53;;;16.00;99.90;;;;;;5066211;28;20578;-78
2022/06/13 05:29:17;;;;;;;12.32;5.40;;;15.90;99.90;;;;;;5078179;28;20181;-78
2022/06/13 05:31:44;;;;;;;8.55;6.05;;;15.70;99.90;;;;;;5064193;28;20197;-78
2022/06/13 05:34:21;;;;;;;8.50;5.55;;;15.60;99.90;;;;;;5075184;28;20200;-78
2022/06/13 05:37:03;;;;;;;11.43;6.18;;;15.70;99.90;;;;;;5055654;28;20210;-78
2022/06/13 05:39:31;;;;;;;12.77;7.30;;;15.60;99.90;;;;;;5057599;28;20213;-78
2022/06/13 05:42:13;;;;;;;14.57;7.05;;;15.40;99.90;;;;;;5074151;28;20201;-78
2022/06/13 05:44:42;;;;;;;11.00;7.10;;;15.40;99.90;;;;;;5067573;28;20219;-78
2022/06/13 05:47:16;;;;;;;15.25;7.53;;;15.30;99.90;;;;;;5068536;28;20233;-78
2022/06/13 05:49:44;;;;;;;12.70;7.35;;;15.30;99.90;;;;;;5064171;28;20198;-77
2022/06/13 05:52:12;;;;;;;10.60;7.03;;;15.60;99.90;;;;;;5067344;28;20690;-78
2022/06/13 05:54:39;;;;;;;12.15;7.22;;;15.60;99.90;;;;;;5062651;28;20197;-78
2022/06/13 05:57:07;;;;;;;14.50;7.57;;;15.60;99.90;;;;;;5072184;28;20213;-77
2022/06/13 05:59:34;;;;;;;17.65;8.05;;;15.40;99.90;;;;;;5065890;28;20205;-77
2022/06/13 06:02:05;;;;;;;14.70;7.57;;;15.10;99.90;;;;;;5069499;28;20205;-77
2022/06/13 06:04:33;;;;;;;12.18;7.95;;;15.10;99.90;;;;;;5062943;28;20192;-77
2022/06/13 06:07:00;;;;;;;13.93;8.38;;;14.90;99.90;;;;;;5060984;28;20249;-77
2022/06/13 06:09:28;;;;;;;14.57;8.75;;;14.70;99.90;;;;;;5059176;28;20652;-78
2022/06/13 06:11:56;;;;;;;13.07;8.10;;;14.70;99.90;;;;;;5059117;28;20253;-81
2022/06/13 06:14:23;;;;;;;14.48;9.45;;;15.30;99.90;;;;;;5067916;28;20197;-76
2022/06/13 06:16:51;;;;;;;13.45;8.40;;;14.90;99.90;;;;;;5067129;28;20275;-77
2022/06/13 06:19:20;;;;;;;12.35;8.50;;;15.00;99.90;;;;;;5068648;28;20209;-77
2022/06/13 06:21:47;;;;;;;10.25;7.25;;;15.50;99.90;;;;;;5078404;28;20212;-77
2022/06/13 06:24:15;;;;;;;12.85;7.57;;;15.70;99.90;;;;;;5073847;28;20189;-77
2022/06/13 06:26:42;;;;;;;13.50;8.60;;;15.80;99.90;;;;;;5070552;28;20213;-76
2022/06/13 06:29:11;;;;;;;15.40;8.45;;;15.60;99.90;;;;;;5068792;28;20194;-76
2022/06/13 06:31:38;;;;;;;12.05;7.55;;;15.30;99.90;;;;;;5079970;28;20189;-77
2022/06/13 06:34:26;;;;;;;12.98;8.38;;;15.60;99.90;;;;;;5073345;28;20679;-77
2022/06/13 06:36:55;;;;;;;12.10;8.07;;;15.80;99.90;;;;;;5072910;28;20225;-78
2022/06/13 06:39:25;;;;;;;12.75;8.75;;;16.00;99.90;;;;;;5066725;28;20564;-79
2022/06/13 06:42:11;;;;;;;14.75;9.43;;;15.60;99.90;;;;;;5069730;28;20197;-78
2022/06/13 06:44:43;;;;;;;12.60;8.88;;;15.60;99.90;;;;;;5066644;28;20197;-77
2022/06/13 06:47:18;;;;;;;14.82;9.57;;;15.70;99.90;;;;;;5065318;28;20698;-77
2022/06/13 06:49:48;;;;;;;14.13;8.63;;;15.80;99.90;;;;;;5073710;28;20196;-77
2022/06/13 06:52:16;;;;;;;13.15;9.10;;;15.70;99.90;;;;;;5063553;28;20194;-77
2022/06/13 07:00:14;;;;;;;12.80;8.18;;;15.40;99.90;;;;;;5070622;28;20185;-77
2022/06/13 07:02:41;;;;;;;13.40;9.57;;;15.40;99.90;;;;;;5066649;28;20237;-76
2022/06/13 07:05:12;;;;;;;15.98;9.93;;;15.10;99.90;;;;;;5069241;28;20549;-77
2022/06/13 07:07:40;;;;;;;11.63;9.10;;;15.20;99.90;;;;;;5069928;28;20689;-77
2022/06/13 07:10:13;;;;;;;14.77;9.57;;;15.50;99.90;;;;;;5061867;28;20205;-77
2022/06/13 07:12:40;;;;;;;15.02;9.73;;;15.80;99.90;;;;;;5070279;28;20200;-77
2022/06/13 07:15:10;;;;;;;17.38;10.10;;;15.80;99.90;;;;;;5068899;28;20197;-77
2022/06/13 07:17:37;;;;;;;17.73;10.70;;;15.70;99.90;;;;;;5061909;28;20249;-76
2022/06/13 07:20:06;;;;;;;17.38;10.95;;;15.60;99.90;;;;;;5072233;28;20205;-77
2022/06/13 07:22:35;;;;;;;21.23;11.45;;;15.80;99.90;;;;;;5074813;28;20193;-77
2022/06/13 07:25:02;;;;;;;15.48;10.70;;;16.10;99.90;;;;;;5072512;28;20210;-77
2022/06/13 07:27:30;;;;;;;23.58;16.05;;;16.40;99.90;;;;;;5071984;28;20213;-77
2022/06/13 07:29:58;;;;;;;15.80;10.98;;;16.20;99.90;;;;;;5070270;28;20212;-77
2022/06/13 07:32:26;;;;;;;23.85;15.63;;;16.00;99.90;;;;;;5066163;28;20193;-77
2022/06/13 07:34:54;;;;;;;23.55;14.43;;;16.00;99.90;;;;;;5071759;28;20225;-77
2022/06/13 07:40:12;;;;;;;26.13;18.85;;;16.40;99.90;;;;;;5071957;28;20228;-77
2022/06/13 07:42:43;;;;;;;25.48;17.73;;;16.00;99.90;;;;;;5082306;28;20197;-77
2022/06/13 07:45:15;;;;;;;23.55;17.55;;;16.00;99.90;;;;;;5063990;28;20670;-77
2022/06/13 07:47:43;;;;;;;26.30;17.25;;;16.20;99.90;;;;;;5055777;28;20226;-77
2022/06/13 07:50:13;;;;;;;25.48;16.85;;;16.50;99.90;;;;;;5085844;28;20273;-76
2022/06/13 07:52:41;;;;;;;21.88;17.58;;;16.70;99.90;;;;;;5067934;28;20201;-76
2022/06/13 07:55:12;;;;;;;24.88;18.48;;;16.90;99.90;;;;;;5072099;28;20197;-76
2022/06/13 07:57:40;;;;;;;26.23;20.05;;;16.50;99.90;;;;;;5061442;28;20218;-76
2022/06/13 08:00:18;;;;;;;27.25;19.90;;;16.50;99.90;;;;;;5063323;28;20213;-76
2022/06/13 08:02:46;;;;;;;25.73;20.25;;;16.60;99.90;;;;;;5067135;28;20186;-76
2022/06/13 08:05:18;;;;;;;24.65;18.48;;;16.50;99.90;;;;;;5069800;28;20212;-76
2022/06/13 08:08:23;;;;;;;24.90;18.92;;;17.00;99.90;;;;;;5077379;28;20218;-76
2022/06/13 08:11:06;;;;;;;25.52;20.63;;;17.20;99.90;;;;;;5069200;28;20186;-76
2022/06/13 08:13:35;;;;;;;23.42;19.85;;;17.20;99.90;;;;;;5075660;28;20208;-75
2022/06/13 08:16:05;;;;;;;27.33;18.90;;;17.30;99.90;;;;;;5094073;28;20660;-76
2022/06/13 08:18:32;;;;;;;24.02;19.17;;;17.10;99.90;;;;;;5064822;28;20209;-76
2022/06/13 08:21:00;;;;;;;21.23;17.08;;;17.10;99.90;;;;;;5073579;28;20209;-76
2022/06/13 08:23:27;;;;;;;23.27;17.63;;;17.50;99.90;;;;;;5076354;28;20201;-76
2022/06/13 08:25:55;;;;;;;22.17;17.95;;;17.50;99.90;;;;;;5071346;28;20194;-76
2022/06/13 08:28:24;;;;;;;22.52;16.65;;;17.50;99.90;;;;;;5069538;28;20209;-76
2022/06/13 08:30:54;;;;;;;20.45;16.83;;;17.60;99.90;;;;;;5076040;28;20193;-76
2022/06/13 08:33:22;;;;;;;21.30;15.68;;;17.40;99.90;;;;;;5074653;28;20205;-75
2022/06/13 08:35:50;;;;;;;16.98;14.93;;;17.20;99.90;;;;;;5085851;28;20212;-75
2022/06/13 08:38:19;;;;;;;18.42;14.13;;;17.50;99.90;;;;;;5071758;28;20233;-75
2022/06/13 08:40:54;;;;;;;18.58;13.23;;;17.70;99.90;;;;;;5059764;28;20199;-77
2022/06/13 08:44:00;;;;;;;19.38;13.35;;;17.80;99.90;;;;;;5060683;28;20189;-76
2022/06/13 08:50:08;;;;;;;13.43;10.07;;;17.90;99.90;;;;;;5070241;28;20174;-77
2022/06/13 08:52:44;;;;;;;13.82;9.13;;;17.70;99.90;;;;;;5066139;28;20186;-76
2022/06/13 08:55:18;;;;;;;16.40;10.15;;;17.80;99.90;;;;;;5068870;28;20213;-76
2022/06/13 08:57:51;;;;;;;16.35;10.30;;;17.70;99.90;;;;;;5072964;28;20213;-76
2022/06/13 09:00:30;;;;;;;12.00;8.75;;;17.90;99.90;;;;;;5072647;28;20209;-76
2022/06/13 09:03:04;;;;;;;14.82;9.05;;;18.00;99.90;;;;;;5070417;28;20209;-76
2022/06/13 09:05:39;;;;;;;11.38;7.80;;;18.20;99.90;;;;;;5069512;28;20193;-76
2022/06/13 09:08:12;;;;;;;12.30;7.05;;;18.00;99.90;;;;;;5066906;28;20221;-76
2022/06/13 09:10:48;;;;;;;13.32;6.95;;;17.90;99.90;;;;;;5070795;28;20212;-76
2022/06/13 09:13:36;;;;;;;12.23;6.40;;;18.10;99.90;;;;;;5066739;28;20554;-79
2022/06/13 09:16:08;;;;;;;11.88;5.93;;;18.00;99.90;;;;;;5074782;28;20295;-77
2022/06/13 09:18:49;;;;;;;8.55;4.85;;;18.00;99.90;;;;;;5069603;28;20213;-76
2022/06/13 09:21:26;;;;;;;9.68;5.40;;;18.20;99.90;;;;;;5065021;28;20214;-76
2022/06/13 09:24:03;;;;;;;9.50;5.75;;;18.10;99.90;;;;;;5081270;28;20212;-76
2022/06/13 09:26:46;;;;;;;13.35;5.10;;;17.90;99.90;;;;;;5072509;28;20200;-77
2022/06/13 09:29:21;;;;;;;12.27;5.30;;;18.00;99.90;;;;;;5082861;28;20198;-77
2022/06/13 09:32:00;;;;;;;8.68;5.45;;;17.90;99.90;;;;;;5063118;28;20762;-77
2022/06/13 09:34:49;;;;;;;10.68;5.78;;;18.10;99.90;;;;;;5065834;28;20190;-77
2022/06/13 09:37:24;;;;;;;12.23;5.95;;;18.10;99.90;;;;;;5063556;28;20717;-77
2022/06/13 09:39:52;;;;;;;9.90;5.28;;;18.10;99.90;;;;;;5062233;28;20228;-76
2022/06/13 09:42:46;;;;;;;6.85;4.20;;;18.10;99.90;;;;;;5068881;28;20675;-76
2022/06/13 09:45:40;;;;;;;8.68;4.15;;;18.10;99.90;;;;;;5068085;28;20216;-76
2022/06/13 09:48:17;;;;;;;6.38;4.18;;;17.90;99.30;;;;;;5053906;28;20214;-76
2022/06/13 09:50:53;;;;;;;7.97;4.22;;;18.00;99.50;;;;;;5056448;28;20204;-76
2022/06/13 09:53:29;;;;;;;8.52;3.97;;;18.00;99.60;;;;;;5068456;28;20267;-76
2022/06/13 09:56:04;;;;;;;8.43;3.63;;;18.10;99.20;;;;;;5066259;28;20668;-76
2022/06/13 09:58:48;;;;;;;6.07;4.25;;;18.20;98.60;;;;;;5057408;28;20685;-76
2022/06/13 10:01:22;;;;;;;7.68;3.83;;;18.30;97.10;;;;;;5056545;28;20565;-76
2022/06/13 10:03:58;;;;;;;7.50;3.72;;;18.30;97.40;;;;;;5081346;28;20207;-75
2022/06/13 10:06:33;;;;;;;6.40;3.40;;;18.50;95.60;;;;;;5070273;28;20201;-76
2022/06/13 10:09:15;;;;;;;9.30;4.07;;;18.30;94.90;;;;;;5068195;28;20205;-76
2022/06/13 10:11:51;;;;;;;8.10;3.70;;;18.40;95.70;;;;;;5055579;28;20196;-76
2022/06/13 10:14:47;;;;;;;8.43;4.20;;;18.70;95.50;;;;;;5061140;28;20201;-76
2022/06/13 10:17:37;;;;;;;9.07;4.18;;;18.60;95.70;;;;;;5066257;28;20233;-76
2022/06/13 10:20:15;;;;;;;4.88;3.83;;;18.90;95.90;;;;;;5065216;28;20213;-76
2022/06/13 10:22:49;;;;;;;8.57;3.53;;;18.90;95.10;;;;;;5071217;28;20193;-76
2022/06/13 10:25:38;;;;;;;4.68;3.55;;;18.90;94.60;;;;;;5069130;28;20208;-76
2022/06/13 10:28:23;;;;;;;10.55;3.60;;;18.70;95.00;;;;;;5069724;28;20240;-76
2022/06/13 10:30:58;;;;;;;6.57;3.10;;;18.60;93.90;;;;;;5061859;28;20175;-76
2022/06/13 10:33:45;;;;;;;6.40;2.63;;;18.80;92.40;;;;;;5066208;28;20205;-76
2022/06/13 10:36:19;;;;;;;5.43;2.60;;;18.80;90.70;;;;;;5064948;28;20201;-76
2022/06/13 10:38:58;;;;;;;6.57;2.63;;;19.00;90.60;;;;;;5067560;28;20254;-75
2022/06/13 10:41:29;;;;;;;8.82;2.70;;;19.10;91.00;;;;;;5069092;28;20224;-76
2022/06/13 10:43:59;;;;;;;5.50;2.50;;;19.00;90.50;;;;;;5070134;28;20202;-76
2022/06/13 10:46:26;;;;;;;7.57;2.28;;;18.80;90.10;;;;;;5086643;28;20201;-76
2022/06/13 10:49:00;;;;;;;7.32;2.90;;;18.70;90.10;;;;;;5064960;28;20201;-76
2022/06/13 10:51:28;;;;;;;4.82;2.63;;;18.80;90.50;;;;;;5068535;28;20201;-76
2022/06/13 10:54:02;;;;;;;6.03;2.40;;;19.20;91.00;;;;;;5053952;28;20206;-76
2022/06/13 10:56:42;;;;;;;4.22;2.30;;;19.20;90.20;;;;;;5071345;28;20204;-76
2022/06/13 10:59:24;;;;;;;5.65;2.60;;;19.40;88.20;;;;;;5075119;28;20209;-76
2022/06/13 11:02:00;;;;;;;6.63;2.25;;;19.50;86.40;;;;;;5059663;28;20206;-76
2022/06/13 11:04:29;;;;;;;5.05;2.22;;;19.50;87.30;;;;;;5070187;28;20209;-76
2022/06/13 11:07:03;;;;;;;4.05;2.15;;;19.30;86.60;;;;;;5083064;28;20229;-76
2022/06/13 11:09:36;;;;;;;4.43;2.40;;;19.30;87.20;;;;;;5079834;28;20194;-76
2022/06/13 11:12:17;;;;;;;4.28;2.47;;;19.20;88.60;;;;;;5071609;28;20197;-76
2022/06/13 11:23:28;;;;;;;2.60;1.52;;;19.40;86.50;;;;;;5074528;28;20190;-76
2022/06/13 11:25:57;;;;;;;3.25;1.75;;;19.80;83.80;;;;;;5041090;28;20623;-76
2022/06/13 11:28:29;;;;;;;3.28;1.98;;;20.00;80.40;;;;;;5063263;28;20213;-76
2022/06/13 11:31:12;;;;;;;4.90;1.60;;;20.00;81.00;;;;;;5075625;28;20193;-76
2022/06/13 11:33:40;;;;;;;3.92;1.50;;;19.50;80.70;;;;;;5065772;28;20208;-76
2022/06/13 11:36:22;;;;;;;4.47;2.00;;;19.60;80.90;;;;;;5075791;28;20198;-77
2022/06/13 11:38:58;;;;;;;2.65;1.63;;;20.10;80.30;;;;;;5070025;28;20233;-76
2022/06/13 11:41:30;;;;;;;3.10;1.42;;;20.10;74.80;;;;;;5090209;28;20217;-76
2022/06/13 11:44:02;;;;;;;3.40;1.50;;;20.20;73.70;;;;;;5053820;28;20206;-76
2022/06/13 11:46:40;;;;;;;3.22;1.40;;;20.10;68.30;;;;;;5055156;28;20194;-77
2022/06/13 11:49:32;;;;;;;3.45;1.40;;;20.40;70.20;;;;;;5071748;28;20567;-76
2022/06/13 11:52:06;;;;;;;2.25;1.08;;;20.30;60.30;;;;;;5064869;28;20205;-76
2022/06/13 11:54:36;;;;;;;1.48;0.93;;;20.20;58.60;;;;;;5065035;28;20182;-77
2022/06/13 11:57:29;;;;;;;3.55;1.10;;;19.90;60.90;;;;;;5070434;28;20221;-77
2022/06/13 12:00:00;;;;;;;2.47;0.80;;;20.20;59.30;;;;;;5084641;28;20703;-77
2022/06/13 12:03:21;;;;;;;0.95;0.80;;;20.20;59.70;;;;;;5070686;28;20189;-77
2022/06/13 12:05:51;;;;;;;2.83;1.23;;;20.60;62.70;;;;;;5011953;28;20882;-76
2022/06/13 12:08:23;;;;;;;2.20;1.10;;;20.40;62.20;;;;;;5069773;28;20213;-76
2022/06/13 12:10:58;;;;;;;2.38;1.10;;;20.20;65.20;;;;;;5074223;28;20186;-77
2022/06/13 12:13:26;;;;;;;3.40;1.38;;;20.00;68.80;;;;;;5065970;28;20189;-77
2022/06/13 12:16:01;;;;;;;3.30;1.30;;;19.60;69.50;;;;;;5074294;28;20197;-77
2022/06/13 12:18:43;;;;;;;4.90;1.60;;;19.40;70.70;;;;;;5073418;28;20212;-76
2022/06/13 12:21:23;;;;;;;1.77;1.20;;;19.30;75.00;;;;;;5073646;28;20226;-77
2022/06/13 12:23:57;;;;;;;4.90;1.42;;;19.30;77.30;;;;;;5074942;28;20188;-77
2022/06/13 12:26:29;;;;;;;3.00;1.33;;;19.50;78.00;;;;;;5073264;28;20655;-76
2022/06/13 12:29:07;;;;;;;2.75;1.20;;;19.90;78.50;;;;;;5068597;28;20193;-77
2022/06/13 12:31:41;;;;;;;4.78;1.17;;;19.80;77.30;;;;;;5062366;28;20540;-77
2022/06/13 12:34:21;;;;;;;2.03;1.30;;;19.90;77.50;;;;;;5065802;28;20203;-77
2022/06/13 12:37:03;;;;;;;2.58;0.88;;;19.70;75.80;;;;;;5073217;28;20217;-76
2022/06/13 12:39:57;;;;;;;2.70;0.90;;;19.50;75.70;;;;;;5071704;28;20194;-77
2022/06/13 12:42:48;;;;;;;3.15;0.80;;;19.40;72.20;;;;;;5070455;28;20660;-76
2022/06/13 12:46:09;;;;;;;1.50;1.00;;;19.50;73.40;;;;;;5086326;28;20201;-77
2022/06/13 12:48:50;;;;;;;3.22;1.48;;;19.90;72.00;;;;;;5053728;28;20233;-77
2022/06/13 12:51:27;;;;;;;2.63;0.95;;;20.20;72.00;;;;;;5053519;28;20198;-77
2022/06/13 12:54:31;;;;;;;2.97;1.23;;;20.40;71.40;;;;;;5067862;28;20189;-78
2022/06/13 12:57:04;;;;;;;3.78;1.10;;;20.70;71.90;;;;;;5069055;28;20255;-77
2022/06/13 13:00:06;;;;;;;2.42;1.00;;;20.30;73.30;;;;;;5073164;28;20219;-77
2022/06/13 13:03:04;;;;;;;4.15;1.10;;;20.40;74.90;;;;;;5069606;28;20194;-78
2022/06/13 13:05:46;;;;;;;2.88;1.05;;;20.40;74.10;;;;;;5075148;28;20216;-81
2022/06/13 13:08:25;;;;;;;3.13;1.27;;;20.80;75.50;;;;;;5073351;28;20722;-76
2022/06/13 13:11:30;;;;;;;5.28;1.58;;;20.40;72.80;;;;;;5085808;28;20208;-77
2022/06/13 13:14:07;;;;;;;1.85;1.13;;;20.20;71.10;;;;;;5071072;28;20201;-76
2022/06/13 13:16:46;;;;;;;3.20;0.90;;;20.40;69.90;;;;;;5065519;28;20201;-76
2022/06/13 13:19:45;;;;;;;2.45;0.88;;;20.60;67.20;;;;;;5071637;28;20198;-77
2022/06/13 13:22:20;;;;;;;4.13;1.33;;;21.00;68.60;;;;;;5087921;28;20224;-77
2022/06/13 13:24:59;;;;;;;3.72;1.30;;;20.70;72.30;;;;;;5071130;28;20205;-77
2022/06/13 13:27:26;;;;;;;2.63;1.20;;;20.70;72.00;;;;;;5077851;28;20222;-77
2022/06/13 13:30:05;;;;;;;4.68;1.42;;;20.70;70.80;;;;;;5070371;28;20212;-77
2022/06/13 13:32:43;;;;;;;1.83;0.90;;;21.10;70.30;;;;;;5062471;28;20692;-77
2022/06/13 13:35:26;;;;;;;5.75;1.42;;;21.40;66.60;;;;;;5068306;28;20554;-79
2022/06/13 13:38:02;;;;;;;4.55;1.13;;;21.50;66.40;;;;;;5067974;28;20210;-79
2022/06/13 13:40:39;;;;;;;2.58;0.95;;;20.70;65.10;;;;;;5069062;28;20202;-79
2022/06/13 13:43:20;;;;;;;2.28;1.13;;;21.10;63.70;;;;;;5065889;28;20202;-79
2022/06/13 13:45:52;;;;;;;3.05;1.08;;;21.30;63.30;;;;;;5072416;28;20718;-79
2022/06/13 13:48:43;;;;;;;3.70;1.00;;;21.20;59.80;;;;;;5073104;28;20225;-79
2022/06/13 13:51:19;;;;;;;3.08;0.93;;;21.70;57.80;;;;;;5072575;28;20201;-79
2022/06/13 13:53:58;;;;;;;4.95;0.88;;;21.60;55.40;;;;;;5073308;28;20208;-80
2022/06/13 13:56:34;;;;;;;2.00;0.90;;;21.50;57.00;;;;;;5073120;28;20194;-79